sensor_id;sensor_type;location;lat;lon;timestamp;pressure;altitude;pressure_sealevel;temperature;humidity
64078;BME280;51039;49.696;10.808;2023-03-25T00:01:56;97582.84;;;7.35;100.00
64078;BME280;51039;49.696;10.808;2023-03-25T00:04:21;97587.09;;;7.29;100.00
64078;BME280;51039;49.696;10.808;2023-03-25T00:06:54;97582.03;;;7.14;100.00
64078;BME280;51039;49.696;10.808;2023-03-25T00:09:20;97578.34;;;7.08;100.00
64078;BME280;51039;49.696;10.808;2023-03-25T00:11:48;97582.19;;;6.99;100.00
64078;BME280;51039;49.696;10.808;2023-03-25T00:14:14;97574.06;;;6.94;100.00
64078;BME280;51039;49.696;10.808;2023-03-25T00:16:41;97571.03;;;6.97;100.00
64078;BME280;51039;49.696;10.808;2023-03-25T00:19:06;97562.72;;;6.94;100.00
64078;BME280;51039;49.696;10.808;2023-03-25T00:21:33;97560.28;;;6.92;100.00
64078;BME280;51039;49.696;10.808;2023-03-25T00:23:59;97566.97;;;6.95;100.00
64078;BME280;51039;49.696;10.808;2023-03-25T00:26:24;97562.53;;;6.95;100.00
64078;BME280;51039;49.696;10.808;2023-03-25T00:28:53;97558.47;;;7.06;100.00
64078;BME280;51039;49.696;10.808;2023-03-25T00:31:19;97565.38;;;7.14;100.00
64078;BME280;51039;49.696;10.808;2023-03-25T00:33:44;97564.16;;;7.10;100.00
64078;BME280;51039;49.696;10.808;2023-03-25T00:36:10;97563.38;;;7.09;100.00
64078;BME280;51039;49.696;10.808;2023-03-25T00:38:38;97554.88;;;7.20;100.00
64078;BME280;51039;49.696;10.808;2023-03-25T00:41:21;97554.88;;;7.27;100.00
64078;BME280;51039;49.696;10.808;2023-03-25T00:43:52;97559.34;;;7.26;100.00
64078;BME280;51039;49.696;10.808;2023-03-25T00:46:19;97553.66;;;7.23;100.00
64078;BME280;51039;49.696;10.808;2023-03-25T00:48:46;97581.44;;;7.32;100.00
64078;BME280;51039;49.696;10.808;2023-03-25T00:51:12;97584.88;;;7.33;100.00
64078;BME280;51039;49.696;10.808;2023-03-25T00:53:43;97606.34;;;7.30;100.00
64078;BME280;51039;49.696;10.808;2023-03-25T00:56:09;97603.69;;;7.23;100.00
64078;BME280;51039;49.696;10.808;2023-03-25T00:58:36;97586.88;;;7.31;100.00
64078;BME280;51039;49.696;10.808;2023-03-25T01:01:06;97554.47;;;7.30;100.00
64078;BME280;51039;49.696;10.808;2023-03-25T01:03:34;97550.22;;;7.29;100.00
64078;BME280;51039;49.696;10.808;2023-03-25T01:06:01;97551.63;;;7.25;100.00
64078;BME280;51039;49.696;10.808;2023-03-25T01:08:27;97550.63;;;7.26;100.00
64078;BME280;51039;49.696;10.808;2023-03-25T01:10:53;97552.66;;;7.24;100.00
64078;BME280;51039;49.696;10.808;2023-03-25T01:13:20;97540.69;;;7.28;100.00
64078;BME280;51039;49.696;10.808;2023-03-25T01:15:46;97540.09;;;7.26;100.00
64078;BME280;51039;49.696;10.808;2023-03-25T01:18:12;97536.63;;;7.25;100.00
64078;BME280;51039;49.696;10.808;2023-03-25T01:20:38;97538.44;;;7.25;100.00
64078;BME280;51039;49.696;10.808;2023-03-25T01:23:04;97538.88;;;7.22;100.00
64078;BME280;51039;49.696;10.808;2023-03-25T01:25:29;97531.16;;;7.20;100.00
64078;BME280;51039;49.696;10.808;2023-03-25T01:27:54;97528.13;;;7.23;100.00
64078;BME280;51039;49.696;10.808;2023-03-25T01:30:20;97519.41;;;7.23;100.00
64078;BME280;51039;49.696;10.808;2023-03-25T01:32:45;97526.09;;;7.25;100.00
64078;BME280;51039;49.696;10.808;2023-03-25T01:35:10;97516.59;;;7.24;100.00
64078;BME280;51039;49.696;10.808;2023-03-25T01:37:36;97523.69;;;7.24;100.00
64078;BME280;51039;49.696;10.808;2023-03-25T01:40:02;97523.88;;;7.22;100.00
64078;BME280;51039;49.696;10.808;2023-03-25T01:42:29;97514.75;;;7.25;100.00
64078;BME280;51039;49.696;10.808;2023-03-25T01:47:43;97513.94;;;7.18;100.00
64078;BME280;51039;49.696;10.808;2023-03-25T01:50:09;97512.72;;;7.14;100.00
64078;BME280;51039;49.696;10.808;2023-03-25T01:52:39;97517.19;;;7.13;100.00
64078;BME280;51039;49.696;10.808;2023-03-25T01:55:08;97513.31;;;7.09;100.00
64078;BME280;51039;49.696;10.808;2023-03-25T01:57:33;97507.44;;;7.14;100.00
64078;BME280;51039;49.696;10.808;2023-03-25T01:59:59;97504.00;;;7.13;100.00
64078;BME280;51039;49.696;10.808;2023-03-25T02:02:25;97505.63;;;7.07;100.00
64078;BME280;51039;49.696;10.808;2023-03-25T02:04:59;97501.78;;;7.03;100.00
64078;BME280;51039;49.696;10.808;2023-03-25T02:07:30;97500.56;;;6.99;100.00
64078;BME280;51039;49.696;10.808;2023-03-25T02:09:59;97493.06;;;6.96;100.00
64078;BME280;51039;49.696;10.808;2023-03-25T02:12:28;97508.25;;;7.01;100.00
64078;BME280;51039;49.696;10.808;2023-03-25T02:14:53;97505.41;;;7.02;100.00
64078;BME280;51039;49.696;10.808;2023-03-25T02:31:23;97513.13;;;7.11;100.00
64078;BME280;51039;49.696;10.808;2023-03-25T02:44:38;97513.31;;;7.02;100.00
64078;BME280;51039;49.696;10.808;2023-03-25T02:47:12;97519.22;;;7.04;100.00
64078;BME280;51039;49.696;10.808;2023-03-25T02:49:45;97512.31;;;7.03;100.00
64078;BME280;51039;49.696;10.808;2023-03-25T02:52:24;97527.50;;;7.01;100.00
64078;BME280;51039;49.696;10.808;2023-03-25T02:54:52;97526.28;;;6.97;100.00
64078;BME280;51039;49.696;10.808;2023-03-25T02:57:25;97531.31;;;6.92;100.00
64078;BME280;51039;49.696;10.808;2023-03-25T02:59:53;97526.06;;;6.92;100.00
64078;BME280;51039;49.696;10.808;2023-03-25T03:02:20;97525.44;;;6.90;100.00
64078;BME280;51039;49.696;10.808;2023-03-25T03:04:50;97517.13;;;6.86;100.00
64078;BME280;51039;49.696;10.808;2023-03-25T03:07:34;97515.31;;;6.87;100.00
64078;BME280;51039;49.696;10.808;2023-03-25T03:10:19;97515.09;;;6.88;100.00
64078;BME280;51039;49.696;10.808;2023-03-25T03:18:47;97513.91;;;6.84;100.00
64078;BME280;51039;49.696;10.808;2023-03-25T03:29:42;97519.00;;;6.99;100.00
64078;BME280;51039;49.696;10.808;2023-03-25T03:32:21;97508.03;;;7.02;100.00
64078;BME280;51039;49.696;10.808;2023-03-25T03:34:48;97515.97;;;7.09;100.00
64078;BME280;51039;49.696;10.808;2023-03-25T03:37:20;97523.66;;;7.11;100.00
64078;BME280;51039;49.696;10.808;2023-03-25T03:39:52;97514.75;;;7.12;100.00
64078;BME280;51039;49.696;10.808;2023-03-25T03:42:23;97518.59;;;7.16;100.00
64078;BME280;51039;49.696;10.808;2023-03-25T03:45:00;97525.69;;;7.15;100.00
64078;BME280;51039;49.696;10.808;2023-03-25T03:47:38;97523.47;;;7.19;100.00
64078;BME280;51039;49.696;10.808;2023-03-25T03:50:13;97526.72;;;7.21;100.00
64078;BME280;51039;49.696;10.808;2023-03-25T03:52:48;97527.72;;;7.20;100.00
64078;BME280;51039;49.696;10.808;2023-03-25T03:55:22;97517.81;;;7.22;100.00
64078;BME280;51039;49.696;10.808;2023-03-25T03:57:58;97512.13;;;7.18;100.00
64078;BME280;51039;49.696;10.808;2023-03-25T04:00:34;97508.88;;;7.16;100.00
64078;BME280;51039;49.696;10.808;2023-03-25T04:03:07;97510.50;;;7.17;100.00
64078;BME280;51039;49.696;10.808;2023-03-25T04:05:38;97505.03;;;7.19;100.00
64078;BME280;51039;49.696;10.808;2023-03-25T04:08:10;97507.47;;;7.20;99.13
64078;BME280;51039;49.696;10.808;2023-03-25T04:10:50;97501.16;;;7.21;99.28
64078;BME280;51039;49.696;10.808;2023-03-25T04:13:22;97500.56;;;7.19;97.66
64078;BME280;51039;49.696;10.808;2023-03-25T04:15:50;97507.47;;;7.20;95.85
64078;BME280;51039;49.696;10.808;2023-03-25T04:18:15;97497.31;;;7.17;94.42
64078;BME280;51039;49.696;10.808;2023-03-25T04:20:41;97500.16;;;7.16;93.80
64078;BME280;51039;49.696;10.808;2023-03-25T04:23:09;97493.88;;;7.17;92.69
64078;BME280;51039;49.696;10.808;2023-03-25T04:25:40;97506.44;;;7.15;92.64
64078;BME280;51039;49.696;10.808;2023-03-25T04:28:07;97511.31;;;7.11;92.77
64078;BME280;51039;49.696;10.808;2023-03-25T04:30:32;97519.59;;;7.08;91.74
64078;BME280;51039;49.696;10.808;2023-03-25T04:32:58;97535.00;;;7.04;91.35
64078;BME280;51039;49.696;10.808;2023-03-25T04:35:24;97548.97;;;7.05;91.54
64078;BME280;51039;49.696;10.808;2023-03-25T04:37:50;97539.25;;;7.05;91.82
64078;BME280;51039;49.696;10.808;2023-03-25T04:40:18;97544.13;;;7.08;91.08
64078;BME280;51039;49.696;10.808;2023-03-25T04:42:46;97543.91;;;7.10;90.88
64078;BME280;51039;49.696;10.808;2023-03-25T04:45:13;97547.75;;;7.07;91.05
64078;BME280;51039;49.696;10.808;2023-03-25T04:47:42;97547.16;;;7.05;90.99
64078;BME280;51039;49.696;10.808;2023-03-25T04:50:21;97547.53;;;7.02;90.86
64078;BME280;51039;49.696;10.808;2023-03-25T04:52:52;97546.72;;;6.95;91.99
64078;BME280;51039;49.696;10.808;2023-03-25T04:55:18;97565.97;;;6.96;91.67
64078;BME280;51039;49.696;10.808;2023-03-25T04:57:48;97561.69;;;6.95;91.14
64078;BME280;51039;49.696;10.808;2023-03-25T05:00:16;97568.78;;;6.94;91.70
64078;BME280;51039;49.696;10.808;2023-03-25T05:02:47;97559.28;;;6.93;91.17
64078;BME280;51039;49.696;10.808;2023-03-25T05:05:14;97568.41;;;6.97;91.33
64078;BME280;51039;49.696;10.808;2023-03-25T05:07:45;97579.53;;;6.99;91.17
64078;BME280;51039;49.696;10.808;2023-03-25T05:10:13;97569.00;;;6.99;90.92
64078;BME280;51039;49.696;10.808;2023-03-25T05:12:39;97566.19;;;7.01;90.70
64078;BME280;51039;49.696;10.808;2023-03-25T05:15:04;97564.75;;;6.98;90.55
64078;BME280;51039;49.696;10.808;2023-03-25T05:17:30;97576.09;;;6.99;90.95
64078;BME280;51039;49.696;10.808;2023-03-25T05:19:56;97570.44;;;6.95;91.72
64078;BME280;51039;49.696;10.808;2023-03-25T05:22:21;97575.28;;;6.98;91.33
64078;BME280;51039;49.696;10.808;2023-03-25T05:24:47;97570.84;;;6.99;91.30
64078;BME280;51039;49.696;10.808;2023-03-25T05:27:12;97579.94;;;6.96;91.79
64078;BME280;51039;49.696;10.808;2023-03-25T05:29:37;97576.88;;;6.93;92.53
64078;BME280;51039;49.696;10.808;2023-03-25T05:32:03;97584.59;;;6.94;92.76
64078;BME280;51039;49.696;10.808;2023-03-25T05:34:28;97583.16;;;6.92;92.50
64078;BME280;51039;49.696;10.808;2023-03-25T05:36:55;97585.63;;;6.93;93.23
64078;BME280;51039;49.696;10.808;2023-03-25T05:39:20;97596.75;;;6.95;91.73
64078;BME280;51039;49.696;10.808;2023-03-25T05:41:45;97599.78;;;6.92;92.58
64078;BME280;51039;49.696;10.808;2023-03-25T05:44:11;97605.84;;;6.93;92.80
64078;BME280;51039;49.696;10.808;2023-03-25T05:46:39;97618.19;;;6.92;92.61
64078;BME280;51039;49.696;10.808;2023-03-25T05:49:04;97605.84;;;6.93;93.01
64078;BME280;51039;49.696;10.808;2023-03-25T05:51:31;97615.56;;;6.92;92.29
64078;BME280;51039;49.696;10.808;2023-03-25T05:54:01;97616.97;;;6.88;92.45
64078;BME280;51039;49.696;10.808;2023-03-25T05:56:27;97621.03;;;6.91;92.15
64078;BME280;51039;49.696;10.808;2023-03-25T05:58:53;97629.75;;;6.91;91.36
64078;BME280;51039;49.696;10.808;2023-03-25T06:01:19;97626.09;;;6.92;91.46
64078;BME280;51039;49.696;10.808;2023-03-25T06:03:45;97628.56;;;7.00;90.18
64078;BME280;51039;49.696;10.808;2023-03-25T06:06:11;97612.38;;;7.03;90.26
64078;BME280;51039;49.696;10.808;2023-03-25T06:08:43;97624.53;;;7.04;90.12
64078;BME280;51039;49.696;10.808;2023-03-25T06:11:17;97609.97;;;7.08;89.68
64078;BME280;51039;49.696;10.808;2023-03-25T06:13:44;97611.00;;;7.14;89.44
64078;BME280;51039;49.696;10.808;2023-03-25T06:16:13;97615.44;;;7.20;89.64
64078;BME280;51039;49.696;10.808;2023-03-25T06:18:44;97620.72;;;7.27;89.00
64078;BME280;51039;49.696;10.808;2023-03-25T06:21:14;97618.53;;;7.37;87.64
64078;BME280;51039;49.696;10.808;2023-03-25T06:23:41;97626.81;;;7.41;87.58
64078;BME280;51039;49.696;10.808;2023-03-25T06:26:06;97607.56;;;7.40;87.00
64078;BME280;51039;49.696;10.808;2023-03-25T06:28:32;97620.97;;;7.45;86.88
64078;BME280;51039;49.696;10.808;2023-03-25T06:30:58;97619.75;;;7.41;87.42
64078;BME280;51039;49.696;10.808;2023-03-25T06:33:23;97623.38;;;7.40;87.94
64078;BME280;51039;49.696;10.808;2023-03-25T06:35:48;97628.25;;;7.43;87.60
64078;BME280;51039;49.696;10.808;2023-03-25T06:38:18;97634.34;;;7.44;87.71
64078;BME280;51039;49.696;10.808;2023-03-25T06:40:45;97629.88;;;7.44;87.51
64078;BME280;51039;49.696;10.808;2023-03-25T06:43:11;97633.13;;;7.46;87.96
64078;BME280;51039;49.696;10.808;2023-03-25T06:45:37;97642.03;;;7.45;88.93
64078;BME280;51039;49.696;10.808;2023-03-25T06:48:02;97636.38;;;7.42;90.04
64078;BME280;51039;49.696;10.808;2023-03-25T06:50:29;97634.78;;;7.61;89.67
64078;BME280;51039;49.696;10.808;2023-03-25T06:52:55;97627.69;;;7.88;88.80
64078;BME280;51039;49.696;10.808;2023-03-25T06:55:20;97641.00;;;8.47;86.42
64078;BME280;51039;49.696;10.808;2023-03-25T06:57:45;97642.47;;;8.09;87.58
64078;BME280;51039;49.696;10.808;2023-03-25T07:00:11;97640.84;;;7.95;88.15
64078;BME280;51039;49.696;10.808;2023-03-25T07:02:37;97639.63;;;7.64;88.40
64078;BME280;51039;49.696;10.808;2023-03-25T07:05:03;97637.81;;;7.64;88.19
64078;BME280;51039;49.696;10.808;2023-03-25T07:07:29;97635.78;;;7.53;89.13
64078;BME280;51039;49.696;10.808;2023-03-25T07:09:54;97642.28;;;7.51;89.35
64078;BME280;51039;49.696;10.808;2023-03-25T07:12:23;97644.50;;;7.60;89.05
64078;BME280;51039;49.696;10.808;2023-03-25T07:14:52;97639.03;;;7.69;88.48
64078;BME280;51039;49.696;10.808;2023-03-25T07:17:21;97628.47;;;7.75;87.76
64078;BME280;51039;49.696;10.808;2023-03-25T07:19:47;97620.16;;;7.85;86.48
64078;BME280;51039;49.696;10.808;2023-03-25T07:22:13;97628.91;;;7.99;86.44
64078;BME280;51039;49.696;10.808;2023-03-25T07:24:39;97624.81;;;8.43;83.86
64078;BME280;51039;49.696;10.808;2023-03-25T07:27:04;97629.63;;;8.66;81.72
64078;BME280;51039;49.696;10.808;2023-03-25T07:29:30;97633.78;;;8.87;81.40
64078;BME280;51039;49.696;10.808;2023-03-25T07:31:55;97642.13;;;9.29;78.02
64078;BME280;51039;49.696;10.808;2023-03-25T07:34:20;97648.56;;;9.01;79.52
64078;BME280;51039;49.696;10.808;2023-03-25T07:36:46;97640.38;;;9.48;77.38
64078;BME280;51039;49.696;10.808;2023-03-25T07:39:11;97625.47;;;10.36;73.38
64078;BME280;51039;49.696;10.808;2023-03-25T07:41:36;97639.19;;;10.81;70.98
64078;BME280;51039;49.696;10.808;2023-03-25T07:44:02;97638.72;;;12.06;66.70
64078;BME280;51039;49.696;10.808;2023-03-25T07:46:27;97635.09;;;11.34;66.91
64078;BME280;51039;49.696;10.808;2023-03-25T07:48:53;97637.91;;;10.29;71.52
64078;BME280;51039;49.696;10.808;2023-03-25T07:51:18;97642.84;;;9.75;74.29
64078;BME280;51039;49.696;10.808;2023-03-25T07:53:43;97639.44;;;9.93;73.64
64078;BME280;51039;49.696;10.808;2023-03-25T07:56:10;97642.38;;;9.85;73.21
64078;BME280;51039;49.696;10.808;2023-03-25T07:58:36;97641.00;;;9.75;74.51
64078;BME280;51039;49.696;10.808;2023-03-25T08:01:02;97648.75;;;9.45;75.46
64078;BME280;51039;49.696;10.808;2023-03-25T08:03:27;97642.88;;;9.43;75.40
64078;BME280;51039;49.696;10.808;2023-03-25T08:05:53;97646.59;;;9.29;75.13
64078;BME280;51039;49.696;10.808;2023-03-25T08:08:18;97642.16;;;9.22;75.84
64078;BME280;51039;49.696;10.808;2023-03-25T08:10:43;97653.31;;;9.63;74.50
64078;BME280;51039;49.696;10.808;2023-03-25T08:13:11;97644.41;;;10.33;72.41
64078;BME280;51039;49.696;10.808;2023-03-25T08:15:37;97641.31;;;11.40;68.24
64078;BME280;51039;49.696;10.808;2023-03-25T08:18:03;97647.91;;;10.89;69.16
64078;BME280;51039;49.696;10.808;2023-03-25T08:20:30;97649.09;;;11.23;67.75
64078;BME280;51039;49.696;10.808;2023-03-25T08:22:56;97628.94;;;11.22;67.43
64078;BME280;51039;49.696;10.808;2023-03-25T08:25:22;97644.78;;;11.10;68.05
64078;BME280;51039;49.696;10.808;2023-03-25T08:27:47;97649.16;;;10.68;69.02
64078;BME280;51039;49.696;10.808;2023-03-25T08:30:13;97655.25;;;10.25;69.77
64078;BME280;51039;49.696;10.808;2023-03-25T08:32:39;97660.25;;;10.14;71.34
64078;BME280;51039;49.696;10.808;2023-03-25T08:35:05;97655.44;;;10.30;71.26
64078;BME280;51039;49.696;10.808;2023-03-25T08:37:32;97654.38;;;10.12;70.42
64078;BME280;51039;49.696;10.808;2023-03-25T08:40:02;97660.47;;;9.88;72.56
64078;BME280;51039;49.696;10.808;2023-03-25T08:42:35;97644.91;;;11.15;68.78
64078;BME280;51039;49.696;10.808;2023-03-25T08:45:01;97643.28;;;11.87;63.92
64078;BME280;51039;49.696;10.808;2023-03-25T08:47:28;97651.59;;;12.85;62.32
64078;BME280;51039;49.696;10.808;2023-03-25T08:49:53;97644.59;;;13.48;58.79
64078;BME280;51039;49.696;10.808;2023-03-25T08:52:19;97633.00;;;14.22;57.27
64078;BME280;51039;49.696;10.808;2023-03-25T08:54:44;97648.81;;;14.45;55.39
64078;BME280;51039;49.696;10.808;2023-03-25T08:57:09;97639.94;;;14.40;56.04
64078;BME280;51039;49.696;10.808;2023-03-25T08:59:35;97621.03;;;15.02;53.84
64078;BME280;51039;49.696;10.808;2023-03-25T09:02:00;97628.34;;;13.95;55.82
64078;BME280;51039;49.696;10.808;2023-03-25T09:04:26;97646.97;;;13.32;58.16
64078;BME280;51039;49.696;10.808;2023-03-25T09:06:51;97639.22;;;12.90;59.37
64078;BME280;51039;49.696;10.808;2023-03-25T09:09:16;97641.16;;;12.31;61.69
64078;BME280;51039;49.696;10.808;2023-03-25T09:11:42;97640.44;;;12.00;63.26
64078;BME280;51039;49.696;10.808;2023-03-25T09:14:08;97636.38;;;11.86;62.46
64078;BME280;51039;49.696;10.808;2023-03-25T09:16:33;97643.81;;;11.95;62.08
64078;BME280;51039;49.696;10.808;2023-03-25T09:18:58;97638.16;;;11.62;63.33
64078;BME280;51039;49.696;10.808;2023-03-25T09:21:24;97633.53;;;12.23;62.60
64078;BME280;51039;49.696;10.808;2023-03-25T09:23:50;97630.53;;;12.31;61.83
64078;BME280;51039;49.696;10.808;2023-03-25T09:26:15;97634.91;;;12.13;61.15
64078;BME280;51039;49.696;10.808;2023-03-25T09:28:40;97643.81;;;13.07;58.27
64078;BME280;51039;49.696;10.808;2023-03-25T09:31:06;97640.31;;;12.54;59.65
64078;BME280;51039;49.696;10.808;2023-03-25T09:33:33;97635.69;;;12.73;59.01
64078;BME280;51039;49.696;10.808;2023-03-25T09:36:00;97640.47;;;12.47;60.02
64078;BME280;51039;49.696;10.808;2023-03-25T09:38:26;97624.22;;;14.04;54.68
64078;BME280;51039;49.696;10.808;2023-03-25T09:40:51;97627.78;;;14.10;52.66
64078;BME280;51039;49.696;10.808;2023-03-25T09:46:00;97631.91;;;12.57;57.59
64078;BME280;51039;49.696;10.808;2023-03-25T09:50:56;97636.19;;;12.23;58.26
64078;BME280;51039;49.696;10.808;2023-03-25T09:53:48;97634.78;;;12.20;58.31
64078;BME280;51039;49.696;10.808;2023-03-25T09:56:15;97632.50;;;12.12;58.38
64078;BME280;51039;49.696;10.808;2023-03-25T09:58:47;97637.56;;;12.25;59.27
64078;BME280;51039;49.696;10.808;2023-03-25T10:06:35;97627.25;;;12.76;57.36
64078;BME280;51039;49.696;10.808;2023-03-25T10:14:57;97615.09;;;14.17;52.69
64078;BME280;51039;49.696;10.808;2023-03-25T10:23:26;97612.19;;;12.93;56.96
64078;BME280;51039;49.696;10.808;2023-03-25T10:26:03;97592.63;;;13.28;56.01
64078;BME280;51039;49.696;10.808;2023-03-25T10:28:35;97582.47;;;13.71;55.07
64078;BME280;51039;49.696;10.808;2023-03-25T10:31:08;97584.63;;;13.28;56.17
64078;BME280;51039;49.696;10.808;2023-03-25T10:33:41;97571.53;;;14.06;55.74
64078;BME280;51039;49.696;10.808;2023-03-25T10:36:21;97570.75;;;13.89;55.62
64078;BME280;51039;49.696;10.808;2023-03-25T10:38:55;97565.69;;;14.65;56.21
64078;BME280;51039;49.696;10.808;2023-03-25T10:41:26;97576.03;;;14.62;56.56
64078;BME280;51039;49.696;10.808;2023-03-25T10:43:55;97569.63;;;14.85;55.48
64078;BME280;51039;49.696;10.808;2023-03-25T10:48:49;97580.59;;;15.38;55.46
64078;BME280;51039;49.696;10.808;2023-03-25T10:51:16;97575.94;;;15.55;52.28
64078;BME280;51039;49.696;10.808;2023-03-25T10:53:47;97569.19;;;15.20;52.43
64078;BME280;51039;49.696;10.808;2023-03-25T10:56:15;97560.94;;;14.95;55.18
64078;BME280;51039;49.696;10.808;2023-03-25T10:58:44;97563.66;;;13.78;57.08
64078;BME280;51039;49.696;10.808;2023-03-25T11:01:15;97569.88;;;13.21;58.78
64078;BME280;51039;49.696;10.808;2023-03-25T11:03:43;97596.47;;;12.04;65.58
64078;BME280;51039;49.696;10.808;2023-03-25T11:06:19;97620.16;;;10.54;77.66
64078;BME280;51039;49.696;10.808;2023-03-25T11:11:47;97624.31;;;9.50;85.08
64078;BME280;51039;49.696;10.808;2023-03-25T11:14:14;97616.66;;;9.41;85.34
64078;BME280;51039;49.696;10.808;2023-03-25T11:16:47;97615.41;;;9.69;83.87
64078;BME280;51039;49.696;10.808;2023-03-25T11:21:52;97610.06;;;10.81;80.74
64078;BME280;51039;49.696;10.808;2023-03-25T11:24:30;97610.91;;;10.82;78.84
64078;BME280;51039;49.696;10.808;2023-03-25T11:26:57;97601.16;;;10.94;75.56
64078;BME280;51039;49.696;10.808;2023-03-25T11:29:25;97592.84;;;10.91;75.22
64078;BME280;51039;49.696;10.808;2023-03-25T11:32:10;97595.25;;;11.11;75.00
64078;BME280;51039;49.696;10.808;2023-03-25T11:34:38;97586.56;;;10.55;74.75
64078;BME280;51039;49.696;10.808;2023-03-25T11:37:20;97595.84;;;10.94;75.20
64078;BME280;51039;49.696;10.808;2023-03-25T11:39:48;97595.75;;;11.31;73.49
64078;BME280;51039;49.696;10.808;2023-03-25T11:44:41;97584.94;;;11.45;72.05
64078;BME280;51039;49.696;10.808;2023-03-25T11:47:13;97597.63;;;11.43;71.99
64078;BME280;51039;49.696;10.808;2023-03-25T11:49:47;97585.63;;;11.28;73.19
64078;BME280;51039;49.696;10.808;2023-03-25T11:52:14;97564.69;;;11.62;72.98
64078;BME280;51039;49.696;10.808;2023-03-25T11:54:44;97584.56;;;12.42;72.00
64078;BME280;51039;49.696;10.808;2023-03-25T11:57:11;97570.28;;;13.01;70.32
64078;BME280;51039;49.696;10.808;2023-03-25T11:59:47;97571.34;;;13.00;68.61
64078;BME280;51039;49.696;10.808;2023-03-25T12:04:58;97568.88;;;12.29;67.28
64078;BME280;51039;49.696;10.808;2023-03-25T12:07:26;97569.00;;;12.10;68.40
64078;BME280;51039;49.696;10.808;2023-03-25T12:09:53;97545.84;;;11.94;66.57
64078;BME280;51039;49.696;10.808;2023-03-25T12:12:31;97542.69;;;12.21;67.08
64078;BME280;51039;49.696;10.808;2023-03-25T12:15:11;97517.03;;;12.38;63.81
64078;BME280;51039;49.696;10.808;2023-03-25T12:26:15;97527.97;;;13.11;62.96
64078;BME280;51039;49.696;10.808;2023-03-25T12:40:05;97570.22;;;9.20;76.93
64078;BME280;51039;49.696;10.808;2023-03-25T12:45:48;97578.31;;;8.87;85.64
64078;BME280;51039;49.696;10.808;2023-03-25T12:48:33;97562.13;;;8.83;88.84
64078;BME280;51039;49.696;10.808;2023-03-25T12:54:23;97544.94;;;9.31;88.21
64078;BME280;51039;49.696;10.808;2023-03-25T13:05:04;97542.69;;;9.60;88.49
64078;BME280;51039;49.696;10.808;2023-03-25T13:07:46;97539.41;;;9.65;88.19
64078;BME280;51039;49.696;10.808;2023-03-25T13:10:19;97552.94;;;9.50;90.14
64078;BME280;51039;49.696;10.808;2023-03-25T13:15:26;97648.75;;;7.75;92.66
64078;BME280;51039;49.696;10.808;2023-03-25T13:18:17;97651.25;;;7.08;97.71
64078;BME280;51039;49.696;10.808;2023-03-25T13:23:55;97614.94;;;6.42;100.00
64078;BME280;51039;49.696;10.808;2023-03-25T13:26:27;97614.56;;;6.45;100.00
64078;BME280;51039;49.696;10.808;2023-03-25T13:28:56;97606.75;;;6.58;100.00
64078;BME280;51039;49.696;10.808;2023-03-25T13:31:26;97589.66;;;6.89;99.20
64078;BME280;51039;49.696;10.808;2023-03-25T13:37:14;97597.38;;;8.31;97.80
64078;BME280;51039;49.696;10.808;2023-03-25T13:42:42;97575.53;;;9.14;91.25
64078;BME280;51039;49.696;10.808;2023-03-25T13:45:16;97573.16;;;9.37;91.74
64078;BME280;51039;49.696;10.808;2023-03-25T13:47:45;97567.94;;;9.56;89.66
64078;BME280;51039;49.696;10.808;2023-03-25T13:50:15;97558.41;;;9.55;91.43
64078;BME280;51039;49.696;10.808;2023-03-25T13:52:49;97554.78;;;9.74;89.80
64078;BME280;51039;49.696;10.808;2023-03-25T13:55:19;97556.00;;;9.72;90.01
64078;BME280;51039;49.696;10.808;2023-03-25T13:57:57;97549.63;;;9.54;89.00
64078;BME280;51039;49.696;10.808;2023-03-25T14:01:14;97551.09;;;9.50;89.54
64078;BME280;51039;49.696;10.808;2023-03-25T14:08:59;97537.19;;;10.05;88.65
64078;BME280;51039;49.696;10.808;2023-03-25T14:14:07;97551.00;;;10.26;87.23
64078;BME280;51039;49.696;10.808;2023-03-25T14:16:38;97541.97;;;10.33;85.70
64078;BME280;51039;49.696;10.808;2023-03-25T14:19:14;97542.34;;;10.37;85.16
64078;BME280;51039;49.696;10.808;2023-03-25T14:21:46;97533.97;;;10.40;81.64
64078;BME280;51039;49.696;10.808;2023-03-25T14:24:17;97540.97;;;10.34;81.25
64078;BME280;51039;49.696;10.808;2023-03-25T14:27:04;97541.91;;;10.40;79.12
64078;BME280;51039;49.696;10.808;2023-03-25T14:29:44;97537.44;;;10.40;79.00
64078;BME280;51039;49.696;10.808;2023-03-25T14:34:40;97543.72;;;10.21;77.77
64078;BME280;51039;49.696;10.808;2023-03-25T14:44:50;97536.56;;;10.77;75.43
64078;BME280;51039;49.696;10.808;2023-03-25T14:47:29;97531.72;;;10.74;74.29
64078;BME280;51039;49.696;10.808;2023-03-25T14:50:01;97528.47;;;11.02;75.08
64078;BME280;51039;49.696;10.808;2023-03-25T14:52:40;97522.16;;;11.81;73.92
64078;BME280;51039;49.696;10.808;2023-03-25T14:55:16;97516.06;;;11.92;72.25
64078;BME280;51039;49.696;10.808;2023-03-25T14:58:12;97515.56;;;11.71;71.09
64078;BME280;51039;49.696;10.808;2023-03-25T15:00:52;97513.13;;;11.34;71.57
64078;BME280;51039;49.696;10.808;2023-03-25T15:03:49;97513.56;;;11.43;70.85
64078;BME280;51039;49.696;10.808;2023-03-25T15:06:31;97504.59;;;11.56;69.17
64078;BME280;51039;49.696;10.808;2023-03-25T15:08:58;97521.00;;;11.76;69.19
64078;BME280;51039;49.696;10.808;2023-03-25T15:11:34;97532.50;;;11.58;69.77
64078;BME280;51039;49.696;10.808;2023-03-25T15:14:03;97517.84;;;11.32;67.62
64078;BME280;51039;49.696;10.808;2023-03-25T15:16:53;97521.47;;;11.08;66.77
64078;BME280;51039;49.696;10.808;2023-03-25T15:19:20;97509.00;;;10.96;67.62
64078;BME280;51039;49.696;10.808;2023-03-25T15:26:52;97518.09;;;11.43;66.86
64078;BME280;51039;49.696;10.808;2023-03-25T15:29:32;97525.38;;;11.47;65.31
64078;BME280;51039;49.696;10.808;2023-03-25T15:37:52;97510.38;;;11.53;62.30